Terminal Aerodrome Forecast
Issued by NWS

Home | Current Version | Previous Version | Text Only | Print | Product List | Glossary On
Versions: 1 2 3 4 5 6 7 8 9 10 11 12 13
773
FTUS42 KGSP 240146 AAA
TAFGMU
TAF AMD
KGMU 240146Z 2402/2424 13005KT P6SM OVC060
     FM241100 10004KT P6SM SCT025
      TEMPO 2411/2415 BKN015
     FM241600 17004KT P6SM FEW025 SCT045
     FM241900 19005KT P6SM SCT050=

USA.gov is the U.S. government's official web portal to all federal, state and local government web resources and services.